Time;durP1;ratioP1;P1;durP2;ratioP2;P2;SDS_P1;SDS_P2;PMS_P1;PMS_P2;Temp;Humidity;BMP_temperature;BMP_pressure;BME280_temperature;BME280_humidity;BME280_pressure;Samples;Min_cycle;Max_cycle;Signal;HPM_P1;HPM_P2
2021/08/13 00:00:28;;;;;;;11.60;10.40;;;20.00;99.90;;;;;;6261825;22;20158;-89
2021/08/13 00:02:54;;;;;;;11.37;10.37;;;19.90;99.90;;;;;;6265781;22;20427;-90
2021/08/13 00:05:22;;;;;;;11.57;10.47;;;19.80;99.90;;;;;;6264697;22;20162;-90
2021/08/13 00:07:51;;;;;;;11.87;9.10;;;19.80;99.90;;;;;;6265565;22;20543;-90
2021/08/13 00:10:17;;;;;;;11.17;9.97;;;19.80;99.90;;;;;;6259613;22;20512;-90
2021/08/13 00:12:42;;;;;;;11.87;10.67;;;19.90;99.90;;;;;;6267749;22;20170;-90
2021/08/13 00:15:09;;;;;;;12.43;11.10;;;20.00;99.90;;;;;;6266151;22;20150;-88
2021/08/13 00:17:38;;;;;;;12.10;10.90;;;19.90;99.90;;;;;;6266720;22;20162;-89
2021/08/13 00:20:05;;;;;;;11.33;10.33;;;20.00;99.90;;;;;;6266831;22;20766;-89
2021/08/13 00:22:32;;;;;;;12.80;11.60;;;20.00;99.90;;;;;;6264554;22;21076;-89
2021/08/13 00:24:57;;;;;;;11.70;10.57;;;19.90;99.90;;;;;;6263104;22;20397;-89
2021/08/13 00:27:23;;;;;;;14.37;11.57;;;19.90;99.90;;;;;;6266739;22;20467;-89
2021/08/13 00:29:50;;;;;;;11.60;10.60;;;19.90;99.90;;;;;;6266968;22;20200;-88
2021/08/13 00:32:15;;;;;;;13.73;11.23;;;19.90;99.90;;;;;;6265715;22;20887;-89
2021/08/13 00:34:41;;;;;;;12.13;11.03;;;19.80;99.90;;;;;;6267475;22;20155;-90
2021/08/13 00:37:07;;;;;;;12.20;11.10;;;20.00;99.90;;;;;;6266332;22;20158;-89
2021/08/13 00:39:36;;;;;;;11.70;10.60;;;19.80;99.90;;;;;;6266272;22;20162;-89
2021/08/13 00:42:02;;;;;;;11.90;10.77;;;19.80;99.90;;;;;;6266812;22;20747;-90
2021/08/13 00:44:30;;;;;;;11.20;10.20;;;19.70;99.90;;;;;;6266831;22;20875;-90
2021/08/13 00:46:56;;;;;;;10.90;9.90;;;19.60;99.90;;;;;;6267369;22;20395;-90
2021/08/13 00:49:22;;;;;;;14.90;11.37;;;19.60;99.90;;;;;;6266307;22;20417;-89
2021/08/13 00:51:48;;;;;;;12.87;11.67;;;19.50;99.90;;;;;;6265882;22;20194;-90
2021/08/13 00:54:13;;;;;;;11.00;10.00;;;19.60;99.90;;;;;;6266210;22;20393;-89
2021/08/13 00:56:39;;;;;;;12.70;11.40;;;19.70;99.90;;;;;;6265313;22;20930;-89
2021/08/13 00:59:09;;;;;;;14.33;10.57;;;19.70;99.90;;;;;;6266324;22;20162;-89
2021/08/13 01:01:35;;;;;;;11.63;10.43;;;19.70;99.90;;;;;;6265314;22;20166;-89
2021/08/13 01:04:01;;;;;;;11.60;10.33;;;19.80;99.90;;;;;;6265249;22;20412;-89
2021/08/13 01:06:27;;;;;;;11.27;9.47;;;19.70;99.90;;;;;;6266204;22;20400;-89
2021/08/13 01:08:53;;;;;;;11.90;10.70;;;19.80;99.90;;;;;;6266613;22;20186;-89
2021/08/13 01:11:44;;;;;;;10.93;9.97;;;19.90;99.90;;;;;;6264094;22;20518;-89
2021/08/13 01:14:19;;;;;;;12.97;11.60;;;19.90;99.90;;;;;;6265669;22;20489;-89
2021/08/13 01:16:49;;;;;;;10.83;9.80;;;19.90;99.90;;;;;;6266537;22;20395;-90
2021/08/13 01:19:21;;;;;;;11.60;10.40;;;19.80;99.90;;;;;;6265598;22;20393;-89
2021/08/13 01:21:52;;;;;;;12.00;10.50;;;19.80;99.90;;;;;;6265711;22;20468;-89
2021/08/13 01:24:23;;;;;;;12.27;11.13;;;19.80;99.90;;;;;;6267499;22;20440;-90
2021/08/13 01:27:07;;;;;;;11.43;10.23;;;19.80;99.90;;;;;;6267526;22;20748;-89
2021/08/13 01:29:41;;;;;;;11.80;10.40;;;19.80;99.90;;;;;;6266260;22;20441;-89
2021/08/13 01:32:13;;;;;;;13.10;11.30;;;19.80;99.90;;;;;;6266219;22;20527;-89
2021/08/13 01:34:50;;;;;;;11.40;10.40;;;19.80;99.90;;;;;;6267124;22;20397;-89
2021/08/13 01:37:19;;;;;;;11.93;10.83;;;19.60;99.90;;;;;;6265882;22;20389;-89
2021/08/13 01:39:47;;;;;;;12.93;10.43;;;19.50;99.90;;;;;;6265545;22;20807;-89
2021/08/13 01:42:13;;;;;;;12.30;11.00;;;19.50;99.90;;;;;;6266308;22;20399;-88
2021/08/13 01:44:42;;;;;;;12.20;11.10;;;19.50;99.90;;;;;;6266279;22;20408;-89
2021/08/13 01:47:08;;;;;;;11.90;10.80;;;19.50;99.90;;;;;;6265071;22;20791;-89
2021/08/13 01:49:35;;;;;;;13.50;10.20;;;19.50;99.90;;;;;;6264920;22;20399;-89
2021/08/13 01:52:03;;;;;;;12.20;11.00;;;19.50;99.90;;;;;;6267040;22;20194;-89
2021/08/13 01:54:31;;;;;;;13.00;11.07;;;19.50;99.90;;;;;;6268073;22;20389;-89
2021/08/13 01:56:57;;;;;;;12.50;10.77;;;19.40;99.90;;;;;;6240756;22;20407;-89
2021/08/13 01:59:23;;;;;;;12.47;11.37;;;19.30;99.90;;;;;;6268792;22;20405;-89
2021/08/13 02:01:49;;;;;;;12.30;11.10;;;19.30;99.90;;;;;;6266706;22;20771;-89
2021/08/13 02:04:19;;;;;;;12.13;10.77;;;19.30;99.90;;;;;;6266872;22;20465;-89
2021/08/13 02:06:49;;;;;;;11.80;10.60;;;19.30;99.90;;;;;;6268350;22;20396;-89
2021/08/13 02:09:16;;;;;;;12.27;11.07;;;19.30;99.90;;;;;;6268175;22;20404;-88
2021/08/13 02:11:43;;;;;;;12.57;11.37;;;19.30;99.90;;;;;;6266151;22;20941;-88
2021/08/13 02:14:10;;;;;;;11.80;10.70;;;19.40;99.90;;;;;;6268336;22;20403;-88
2021/08/13 02:16:37;;;;;;;12.67;10.97;;;19.50;99.90;;;;;;6267267;22;20425;-88
2021/08/13 02:19:13;;;;;;;14.27;10.97;;;19.50;99.90;;;;;;6267565;22;20934;-88
2021/08/13 02:21:43;;;;;;;12.17;10.90;;;19.50;99.90;;;;;;6267298;22;20400;-88
2021/08/13 02:24:10;;;;;;;11.13;10.23;;;19.50;99.90;;;;;;6267085;22;20481;-88
2021/08/13 02:26:42;;;;;;;12.30;10.57;;;19.50;99.90;;;;;;6269011;22;20689;-89
2021/08/13 02:29:08;;;;;;;12.20;10.53;;;19.60;99.90;;;;;;6267624;22;20391;-89
2021/08/13 02:31:33;;;;;;;15.23;10.90;;;19.40;99.90;;;;;;6267843;22;20441;-90
2021/08/13 02:33:59;;;;;;;11.57;10.57;;;19.40;99.90;;;;;;6268095;22;20158;-89
2021/08/13 02:36:49;;;;;;;11.70;10.50;;;19.40;99.90;;;;;;6267174;22;20494;-89
2021/08/13 02:39:24;;;;;;;12.43;11.07;;;19.50;99.90;;;;;;6266808;22;20492;-89
2021/08/13 02:41:53;;;;;;;12.80;11.60;;;19.60;99.90;;;;;;6266570;22;20795;-89
2021/08/13 02:44:21;;;;;;;12.30;10.93;;;19.70;99.90;;;;;;6267789;22;20403;-89
2021/08/13 02:47:01;;;;;;;12.03;10.93;;;19.60;99.90;;;;;;6268883;22;20417;-88
2021/08/13 02:49:28;;;;;;;12.50;10.50;;;19.60;99.90;;;;;;6267794;22;20488;-89
2021/08/13 02:52:05;;;;;;;12.20;10.50;;;19.60;99.90;;;;;;6267360;22;20436;-89
2021/08/13 02:54:34;;;;;;;12.57;11.37;;;19.70;99.90;;;;;;6267594;22;20392;-88
2021/08/13 02:57:04;;;;;;;11.43;10.43;;;19.70;99.90;;;;;;6267969;22;20397;-88
2021/08/13 02:59:34;;;;;;;11.67;10.67;;;19.60;99.90;;;;;;6267562;22;20765;-89
2021/08/13 03:02:02;;;;;;;14.60;11.33;;;19.60;99.90;;;;;;6266430;22;20397;-89
2021/08/13 03:04:30;;;;;;;14.07;12.77;;;19.60;99.90;;;;;;6267878;22;20521;-89
2021/08/13 03:06:57;;;;;;;12.73;11.53;;;19.60;99.90;;;;;;6268155;22;20801;-90
2021/08/13 03:09:24;;;;;;;11.63;10.63;;;19.60;99.90;;;;;;6266979;22;20385;-90
2021/08/13 03:11:52;;;;;;;12.47;11.17;;;19.50;99.90;;;;;;6267150;22;20448;-89
2021/08/13 03:14:20;;;;;;;14.00;11.20;;;19.40;99.90;;;;;;6267193;22;20396;-89
2021/08/13 03:16:48;;;;;;;12.80;11.30;;;19.50;99.90;;;;;;6268142;22;20401;-89
2021/08/13 03:19:14;;;;;;;13.20;11.93;;;19.60;99.90;;;;;;6266721;22;20859;-89
2021/08/13 03:21:42;;;;;;;12.20;11.10;;;19.60;99.90;;;;;;6267271;22;20397;-89
2021/08/13 03:24:10;;;;;;;14.00;11.30;;;19.50;99.90;;;;;;6267892;22;20447;-90
2021/08/13 03:26:36;;;;;;;12.57;11.33;;;19.50;99.90;;;;;;6268719;22;20400;-90
2021/08/13 03:29:02;;;;;;;12.10;11.00;;;19.40;99.90;;;;;;6267615;22;20428;-89
2021/08/13 03:31:42;;;;;;;13.73;11.83;;;19.30;99.90;;;;;;6265331;22;20466;-89
2021/08/13 03:34:10;;;;;;;12.33;11.13;;;19.30;99.90;;;;;;6266585;22;20780;-89
2021/08/13 03:36:37;;;;;;;12.73;11.40;;;19.20;99.90;;;;;;6268196;22;20397;-89
2021/08/13 03:39:05;;;;;;;11.70;10.50;;;19.20;99.90;;;;;;6268337;22;20427;-89
2021/08/13 03:41:30;;;;;;;12.83;11.60;;;19.30;99.90;;;;;;6266549;22;20454;-89
2021/08/13 03:43:56;;;;;;;12.70;11.50;;;19.30;99.90;;;;;;6266662;22;20767;-90
2021/08/13 03:46:22;;;;;;;13.13;11.90;;;19.20;99.90;;;;;;6266840;22;20166;-89
2021/08/13 03:48:47;;;;;;;12.80;11.70;;;19.10;99.90;;;;;;6268337;22;20170;-89
2021/08/13 03:51:13;;;;;;;12.17;10.90;;;19.10;99.90;;;;;;6265384;22;20201;-89
2021/08/13 03:53:39;;;;;;;13.97;12.50;;;19.10;99.90;;;;;;6267947;22;20162;-89
2021/08/13 03:56:06;;;;;;;13.20;11.90;;;19.00;99.90;;;;;;6267150;22;20158;-88
2021/08/13 03:58:32;;;;;;;13.10;11.90;;;19.00;99.90;;;;;;6267968;22;20471;-89
2021/08/13 04:00:58;;;;;;;11.80;10.77;;;19.00;99.90;;;;;;6263394;22;20493;-90
2021/08/13 04:03:24;;;;;;;12.33;11.00;;;19.00;99.90;;;;;;6265492;22;20440;-89
2021/08/13 04:05:49;;;;;;;11.70;10.57;;;19.10;99.90;;;;;;6265834;22;20167;-89
2021/08/13 04:08:15;;;;;;;12.30;11.07;;;19.20;99.90;;;;;;6265777;22;20207;-89
2021/08/13 04:10:41;;;;;;;12.53;11.53;;;19.30;99.90;;;;;;6265878;22;20281;-89
2021/08/13 04:13:06;;;;;;;13.30;11.97;;;19.40;99.90;;;;;;6266707;22;20158;-89
2021/08/13 04:15:33;;;;;;;13.77;12.50;;;19.50;99.90;;;;;;6265544;22;20168;-89
2021/08/13 04:17:59;;;;;;;13.20;11.80;;;19.60;99.90;;;;;;6267955;22;20159;-89
2021/08/13 04:20:25;;;;;;;14.87;12.77;;;19.60;99.90;;;;;;6264038;22;20462;-89
2021/08/13 04:22:50;;;;;;;12.63;11.47;;;19.50;99.90;;;;;;6266713;22;20525;-88
2021/08/13 04:25:17;;;;;;;13.87;11.63;;;19.60;99.90;;;;;;6265596;22;20450;-88
2021/08/13 04:27:43;;;;;;;13.63;12.27;;;19.60;99.90;;;;;;6266265;22;20236;-88
2021/08/13 04:30:09;;;;;;;13.13;11.73;;;19.60;99.90;;;;;;6265714;22;20433;-88
2021/08/13 04:32:40;;;;;;;13.27;11.93;;;19.40;99.90;;;;;;6265089;22;20679;-88
2021/08/13 04:35:16;;;;;;;13.43;12.07;;;19.30;99.90;;;;;;6266494;22;20412;-88
2021/08/13 04:37:45;;;;;;;12.67;11.37;;;19.20;99.90;;;;;;6265372;22;20396;-88
2021/08/13 04:40:11;;;;;;;12.37;11.27;;;19.20;99.90;;;;;;6265250;22;20401;-89
2021/08/13 04:42:39;;;;;;;12.60;11.30;;;19.20;99.90;;;;;;6266450;22;21043;-89
2021/08/13 04:45:16;;;;;;;13.53;12.23;;;19.40;99.90;;;;;;6267837;22;20947;-89
2021/08/13 04:47:41;;;;;;;16.03;12.97;;;19.50;99.90;;;;;;6267279;22;20404;-89
2021/08/13 04:50:08;;;;;;;14.47;12.33;;;19.40;99.90;;;;;;6264613;22;20741;-88
2021/08/13 04:52:45;;;;;;;13.50;12.20;;;19.40;99.90;;;;;;6266110;22;20617;-96
2021/08/13 04:55:12;;;;;;;13.93;12.53;;;19.40;99.90;;;;;;6265044;22;20543;-90
2021/08/13 04:57:46;;;;;;;13.03;11.80;;;19.30;99.90;;;;;;6265446;22;20432;-89
2021/08/13 05:00:12;;;;;;;12.73;11.17;;;19.20;99.90;;;;;;6267500;22;20397;-90
2021/08/13 05:02:38;;;;;;;13.00;11.73;;;19.30;99.90;;;;;;6268045;22;20411;-90
2021/08/13 05:05:06;;;;;;;14.10;12.90;;;19.40;99.90;;;;;;6267655;22;20400;-89
2021/08/13 05:07:32;;;;;;;12.80;11.50;;;19.50;99.90;;;;;;6268191;22;20472;-89
2021/08/13 05:10:09;;;;;;;12.40;11.17;;;19.50;99.90;;;;;;6268857;22;20392;-91
2021/08/13 05:12:36;;;;;;;14.10;11.40;;;19.50;99.90;;;;;;6269093;22;20400;-89
2021/08/13 05:15:25;;;;;;;13.13;11.90;;;19.60;99.90;;;;;;6268677;22;20429;-89
2021/08/13 05:17:50;;;;;;;12.73;11.47;;;19.60;99.90;;;;;;6239193;22;20397;-90
2021/08/13 05:20:17;;;;;;;13.83;12.70;;;19.60;99.90;;;;;;6267443;22;20407;-89
2021/08/13 05:22:46;;;;;;;12.83;11.53;;;19.60;99.90;;;;;;6270307;22;20458;-89
2021/08/13 05:25:19;;;;;;;12.77;11.47;;;19.60;99.90;;;;;;6268250;22;20396;-89
2021/08/13 05:27:47;;;;;;;13.70;12.30;;;19.50;99.90;;;;;;6268499;22;20388;-90
2021/08/13 05:30:17;;;;;;;13.70;12.17;;;19.60;99.90;;;;;;6267814;22;20708;-88
2021/08/13 05:32:47;;;;;;;13.57;12.27;;;19.50;99.90;;;;;;6242248;22;20920;-89
2021/08/13 05:35:18;;;;;;;14.57;13.27;;;19.50;99.90;;;;;;6270254;22;20415;-90
2021/08/13 05:37:44;;;;;;;13.80;12.47;;;19.40;99.90;;;;;;6270657;22;20397;-90
2021/08/13 05:40:10;;;;;;;13.70;12.27;;;19.50;99.90;;;;;;6270247;22;20726;-87
2021/08/13 05:42:37;;;;;;;13.73;12.30;;;19.50;99.90;;;;;;6265502;22;20427;-89
2021/08/13 05:45:05;;;;;;;12.43;11.33;;;19.50;99.90;;;;;;6270313;22;20391;-88
2021/08/13 05:47:33;;;;;;;16.23;13.10;;;19.50;99.90;;;;;;6267656;22;20698;-89
2021/08/13 05:49:59;;;;;;;14.10;12.70;;;19.50;99.90;;;;;;6267112;22;20399;-89
2021/08/13 05:52:25;;;;;;;13.73;12.53;;;19.50;99.90;;;;;;6270196;22;20384;-88
2021/08/13 05:54:56;;;;;;;13.33;12.13;;;19.70;99.90;;;;;;6270164;22;20223;-90
2021/08/13 05:57:31;;;;;;;13.87;12.47;;;19.80;99.90;;;;;;6266487;22;20162;-89
2021/08/13 06:00:07;;;;;;;13.23;11.93;;;19.90;99.90;;;;;;6267096;22;20404;-90
2021/08/13 06:02:48;;;;;;;;;;;;;;;;;;;;;
2021/08/13 06:05:16;;;;;;;13.10;12.00;;;20.10;99.90;;;;;;6266530;22;20499;-90
2021/08/13 06:07:42;;;;;;;12.77;11.57;;;20.20;99.90;;;;;;6267233;22;20392;-89
2021/08/13 06:10:08;;;;;;;14.30;12.90;;;20.20;99.90;;;;;;6268326;22;20392;-90
2021/08/13 06:12:34;;;;;;;13.90;12.70;;;20.20;99.90;;;;;;6268777;22;20159;-89
2021/08/13 06:14:59;;;;;;;13.50;12.10;;;20.20;99.90;;;;;;6270871;22;20412;-88
2021/08/13 06:17:25;;;;;;;15.37;12.60;;;20.40;99.90;;;;;;6268447;22;20166;-88
2021/08/13 06:19:53;;;;;;;13.37;12.07;;;20.50;99.90;;;;;;6268153;22;20584;-91
2021/08/13 06:22:19;;;;;;;13.57;12.27;;;20.60;99.90;;;;;;6267634;22;20173;-89
2021/08/13 06:24:55;;;;;;;12.73;11.43;;;20.70;99.90;;;;;;6267765;22;20720;-89
2021/08/13 06:27:45;;;;;;;13.10;11.83;;;20.70;99.90;;;;;;6268691;22;20159;-89
2021/08/13 06:30:18;;;;;;;15.50;13.57;;;20.80;99.90;;;;;;6266983;22;20761;-90
2021/08/13 06:32:43;;;;;;;14.47;13.23;;;20.90;99.90;;;;;;6267579;22;20405;-91
2021/08/13 06:35:10;;;;;;;12.47;11.27;;;21.00;99.90;;;;;;6268339;22;20397;-90
2021/08/13 06:37:51;;;;;;;13.53;12.23;;;21.00;99.90;;;;;;6268708;22;20579;-91
2021/08/13 06:40:17;;;;;;;13.33;12.13;;;20.90;99.90;;;;;;6268421;22;20401;-90
2021/08/13 06:42:43;;;;;;;13.00;11.70;;;21.10;99.90;;;;;;6268811;22;20726;-90
2021/08/13 06:45:11;;;;;;;12.30;11.20;;;21.20;99.90;;;;;;6268638;22;20783;-90
2021/08/13 06:47:37;;;;;;;13.00;11.90;;;21.20;99.90;;;;;;6268894;22;20404;-90
2021/08/13 06:50:06;;;;;;;12.50;11.30;;;21.30;99.90;;;;;;6268220;22;20427;-90
2021/08/13 06:52:32;;;;;;;13.17;11.90;;;21.50;99.90;;;;;;6268229;22;20485;-90
2021/08/13 06:54:58;;;;;;;12.40;11.10;;;21.70;99.90;;;;;;6268125;22;20393;-91
2021/08/13 06:57:24;;;;;;;13.30;12.03;;;21.90;99.90;;;;;;6269344;22;20398;-90
2021/08/13 06:59:50;;;;;;;13.23;11.93;;;22.20;99.90;;;;;;6267597;22;20216;-88
2021/08/13 07:02:16;;;;;;;11.67;10.47;;;22.20;99.90;;;;;;6269024;22;20566;-89
2021/08/13 07:04:41;;;;;;;10.80;9.80;;;22.30;99.90;;;;;;6269481;22;20598;-88
2021/08/13 07:07:07;;;;;;;13.50;12.10;;;22.50;99.90;;;;;;6268827;22;20468;-88
2021/08/13 07:09:33;;;;;;;13.20;11.93;;;22.60;99.90;;;;;;6268246;22;20169;-88
2021/08/13 07:11:59;;;;;;;11.93;10.90;;;22.70;99.90;;;;;;6269178;22;20197;-89
2021/08/13 07:14:24;;;;;;;11.83;10.73;;;22.80;99.90;;;;;;6269441;22;20478;-88
2021/08/13 07:16:50;;;;;;;10.87;9.97;;;22.90;99.90;;;;;;6269380;22;20166;-88
2021/08/13 07:19:16;;;;;;;11.60;10.60;;;23.10;99.90;;;;;;6269790;22;20215;-88
2021/08/13 07:21:42;;;;;;;10.57;9.67;;;23.20;99.90;;;;;;6269385;22;20241;-88
2021/08/13 07:24:07;;;;;;;10.83;9.73;;;23.30;99.90;;;;;;6269106;22;20163;-88
2021/08/13 07:26:33;;;;;;;11.93;10.50;;;23.50;99.90;;;;;;6269461;22;20233;-88
2021/08/13 07:28:59;;;;;;;11.83;10.63;;;23.60;99.90;;;;;;6268576;22;20528;-88
2021/08/13 07:31:25;;;;;;;11.13;9.80;;;23.80;99.90;;;;;;6268258;22;20190;-88
2021/08/13 07:33:51;;;;;;;11.10;10.10;;;23.90;99.90;;;;;;6269299;22;20168;-88
2021/08/13 07:36:17;;;;;;;12.07;10.33;;;24.20;99.90;;;;;;6269206;22;20583;-88
2021/08/13 07:38:42;;;;;;;11.20;10.20;;;24.20;99.90;;;;;;6269423;22;20158;-88
2021/08/13 07:41:09;;;;;;;10.47;9.33;;;24.30;99.90;;;;;;6268892;22;20488;-88
2021/08/13 07:43:37;;;;;;;9.80;8.90;;;24.30;99.90;;;;;;6268761;22;20169;-88
2021/08/13 07:46:10;;;;;;;10.60;8.77;;;24.50;99.90;;;;;;6243897;22;20488;-88
2021/08/13 07:48:39;;;;;;;9.87;9.00;;;24.50;99.90;;;;;;6243978;22;20397;-89
2021/08/13 07:51:05;;;;;;;10.83;9.83;;;24.50;99.90;;;;;;6268929;22;20444;-88
2021/08/13 07:53:38;;;;;;;11.00;10.00;;;24.60;99.90;;;;;;6268444;22;20412;-88
2021/08/13 07:56:13;;;;;;;10.37;9.50;;;24.70;99.90;;;;;;6218242;22;20488;-88
2021/08/13 07:58:39;;;;;;;10.00;9.10;;;24.80;99.90;;;;;;6269228;22;20427;-88
2021/08/13 08:01:04;;;;;;;10.67;8.30;;;24.90;99.90;;;;;;6268094;22;20871;-88
2021/08/13 08:03:30;;;;;;;9.40;8.53;;;24.80;99.90;;;;;;6268739;22;20171;-88
2021/08/13 08:06:02;;;;;;;10.20;8.87;;;24.90;99.90;;;;;;6266869;22;20162;-89
2021/08/13 08:08:28;;;;;;;8.60;7.80;;;25.00;99.90;;;;;;6268826;22;20226;-89
2021/08/13 08:10:54;;;;;;;10.57;7.60;;;24.90;99.90;;;;;;6266326;22;20523;-89
2021/08/13 08:13:20;;;;;;;9.27;8.40;;;25.10;99.90;;;;;;6267994;22;20754;-89
2021/08/13 08:15:46;;;;;;;8.00;7.20;;;25.30;99.90;;;;;;6266554;22;20165;-90
2021/08/13 08:18:12;;;;;;;9.50;8.60;;;25.40;99.90;;;;;;6267162;22;20534;-89
2021/08/13 08:20:38;;;;;;;8.97;8.10;;;25.70;99.90;;;;;;6267395;22;20420;-89
2021/08/13 08:23:07;;;;;;;9.60;8.70;;;25.90;99.90;;;;;;6266792;22;20401;-90
2021/08/13 08:25:40;;;;;;;8.93;8.23;;;26.00;99.90;;;;;;6267841;22;20475;-90
2021/08/13 08:28:06;;;;;;;9.90;9.10;;;26.10;99.90;;;;;;6266194;22;20389;-90
2021/08/13 08:30:32;;;;;;;10.13;9.10;;;26.30;99.90;;;;;;6266053;22;20431;-90
2021/08/13 08:32:57;;;;;;;9.90;8.97;;;26.30;99.90;;;;;;6261026;22;20223;-89
2021/08/13 08:35:28;;;;;;;10.60;8.70;;;26.30;99.90;;;;;;6265484;22;20407;-90
2021/08/13 08:37:56;;;;;;;9.90;9.00;;;26.20;99.90;;;;;;6266627;22;20164;-89
2021/08/13 08:40:35;;;;;;;9.07;8.27;;;26.10;99.90;;;;;;6265385;22;20389;-90
2021/08/13 08:43:04;;;;;;;9.70;8.90;;;26.20;99.90;;;;;;6267589;22;20383;-89
2021/08/13 08:45:32;;;;;;;9.40;8.60;;;26.10;99.90;;;;;;6266369;22;20438;-89
2021/08/13 08:48:06;;;;;;;10.30;9.33;;;25.90;99.90;;;;;;6265904;22;20389;-90
2021/08/13 08:50:34;;;;;;;10.87;9.77;;;25.90;99.90;;;;;;6265193;22;20424;-90
2021/08/13 08:53:03;;;;;;;9.97;8.97;;;26.00;99.90;;;;;;6265358;22;20855;-90
2021/08/13 08:55:29;;;;;;;9.03;8.13;;;25.90;99.90;;;;;;6265862;22;20782;-89
2021/08/13 08:57:55;;;;;;;11.40;9.40;;;25.80;99.90;;;;;;6265363;22;20787;-89
2021/08/13 09:00:22;;;;;;;10.03;8.97;;;25.90;99.90;;;;;;6265954;22;20401;-90
2021/08/13 09:02:49;;;;;;;9.30;8.40;;;26.30;99.90;;;;;;6264454;22;20393;-89
2021/08/13 09:05:15;;;;;;;8.07;7.37;;;26.30;99.90;;;;;;6265120;22;20416;-90
2021/08/13 09:07:41;;;;;;;8.87;8.00;;;26.40;99.90;;;;;;6268418;22;20401;-90
2021/08/13 09:10:10;;;;;;;9.27;7.97;;;26.60;99.90;;;;;;6267673;22;20241;-90
2021/08/13 09:12:36;;;;;;;10.77;8.77;;;26.60;99.90;;;;;;6271606;22;20437;-89
2021/08/13 09:15:02;;;;;;;9.20;8.20;;;26.80;99.90;;;;;;6267926;22;20404;-89
2021/08/13 09:17:31;;;;;;;8.47;7.63;;;27.00;99.90;;;;;;6281743;22;20158;-90
2021/08/13 09:19:58;;;;;;;12.80;7.57;;;27.20;99.90;;;;;;6269361;22;20162;-90
2021/08/13 09:22:24;;;;;;;6.87;6.27;;;27.50;99.30;;;;;;6269167;22;20393;-89
2021/08/13 09:24:52;;;;;;;9.10;6.40;;;27.50;98.70;;;;;;6270031;22;20389;-90
2021/08/13 09:27:25;;;;;;;7.03;6.23;;;27.60;98.40;;;;;;6268915;22;20711;-89
2021/08/13 09:30:12;;;;;;;10.30;7.60;;;27.80;98.80;;;;;;6269069;22;20393;-90
2021/08/13 09:32:40;;;;;;;8.87;7.17;;;28.10;98.10;;;;;;6269832;22;20401;-90
2021/08/13 09:35:07;;;;;;;7.83;6.90;;;28.00;97.80;;;;;;6270325;22;20395;-90
2021/08/13 09:37:36;;;;;;;9.83;6.80;;;28.10;98.00;;;;;;6271525;22;20699;-89
2021/08/13 09:40:02;;;;;;;7.33;6.50;;;28.10;97.40;;;;;;6269077;22;20396;-89
2021/08/13 09:42:37;;;;;;;6.90;6.30;;;28.30;97.60;;;;;;6268698;22;20949;-88
2021/08/13 09:45:11;;;;;;;7.37;6.67;;;28.30;97.30;;;;;;6267824;22;20400;-88
2021/08/13 09:47:45;;;;;;;8.03;7.13;;;28.40;97.40;;;;;;6276632;22;20421;-88
2021/08/13 09:50:19;;;;;;;7.50;6.80;;;28.20;97.60;;;;;;6269694;22;20423;-88
2021/08/13 09:53:05;;;;;;;8.00;7.27;;;28.20;97.10;;;;;;6268764;22;20882;-89
2021/08/13 09:55:30;;;;;;;9.20;7.30;;;28.40;98.20;;;;;;6269167;22;20446;-88
2021/08/13 09:57:56;;;;;;;8.77;7.13;;;28.40;97.30;;;;;;6269614;22;20401;-88
2021/08/13 10:00:22;;;;;;;9.90;6.93;;;28.20;97.20;;;;;;6267824;22;20162;-88
2021/08/13 10:02:47;;;;;;;7.63;6.83;;;28.40;97.40;;;;;;6268567;22;20166;-89
2021/08/13 10:05:17;;;;;;;7.63;6.90;;;28.40;98.00;;;;;;6268011;22;20261;-88
2021/08/13 10:07:49;;;;;;;9.83;7.70;;;28.50;97.60;;;;;;6266194;22;20540;-89
2021/08/13 10:10:16;;;;;;;7.53;6.83;;;28.90;97.00;;;;;;6267889;22;20395;-89
2021/08/13 10:12:44;;;;;;;7.80;7.10;;;28.80;96.50;;;;;;6260250;22;20407;-89
2021/08/13 10:15:12;;;;;;;8.00;7.30;;;29.10;96.30;;;;;;6259064;22;20477;-88
2021/08/13 10:17:38;;;;;;;10.27;7.37;;;29.20;96.20;;;;;;6257838;22;20411;-89
2021/08/13 10:20:05;;;;;;;7.70;6.70;;;29.10;96.70;;;;;;6258842;22;20397;-89
2021/08/13 10:22:31;;;;;;;8.20;7.47;;;28.80;96.50;;;;;;6261841;22;20397;-90
2021/08/13 10:24:57;;;;;;;8.20;7.40;;;28.80;96.50;;;;;;6267933;22;20821;-91
2021/08/13 10:27:24;;;;;;;7.83;7.13;;;29.10;96.70;;;;;;6266470;22;20162;-91
2021/08/13 10:29:50;;;;;;;7.97;7.17;;;29.30;96.50;;;;;;6265681;22;20397;-95
2021/08/13 10:32:20;;;;;;;8.30;7.60;;;29.40;97.80;;;;;;6266273;22;20440;-91
2021/08/13 10:34:54;;;;;;;7.73;7.00;;;29.60;95.50;;;;;;6264392;22;20878;-90
2021/08/13 10:37:24;;;;;;;6.93;6.23;;;29.70;96.00;;;;;;6268220;22;20404;-90
2021/08/13 10:39:52;;;;;;;8.80;7.53;;;29.80;95.70;;;;;;6267133;22;20392;-88
2021/08/13 10:42:21;;;;;;;8.60;6.90;;;29.80;95.40;;;;;;6264512;22;20464;-89
2021/08/13 10:44:52;;;;;;;8.17;6.80;;;29.80;94.80;;;;;;6269271;22;20771;-89
2021/08/13 10:47:28;;;;;;;7.80;7.10;;;29.50;94.90;;;;;;6267620;22;20516;-90
2021/08/13 10:49:59;;;;;;;8.60;7.13;;;29.80;95.40;;;;;;6266748;22;20392;-88
2021/08/13 10:52:40;;;;;;;10.37;6.40;;;30.00;94.90;;;;;;6267055;22;20611;-90
2021/08/13 10:55:07;;;;;;;9.83;6.57;;;30.10;93.80;;;;;;6267469;22;20389;-91
2021/08/13 10:57:51;;;;;;;8.70;7.80;;;30.20;94.40;;;;;;6268040;22;20393;-90
2021/08/13 11:01:06;;;;;;;8.47;6.70;;;30.30;94.40;;;;;;6268308;22;20392;-89
2021/08/13 11:03:37;;;;;;;7.80;7.10;;;30.30;93.50;;;;;;6239748;22;20428;-89
2021/08/13 11:06:04;;;;;;;7.20;6.60;;;30.70;93.30;;;;;;6267372;22;20401;-89
2021/08/13 11:08:54;;;;;;;8.90;6.80;;;30.60;93.60;;;;;;6266258;22;20454;-89
2021/08/13 11:11:20;;;;;;;6.80;6.20;;;30.60;93.00;;;;;;6252262;22;20433;-89
2021/08/13 11:13:47;;;;;;;8.47;7.13;;;30.60;93.50;;;;;;6267553;22;20777;-89
2021/08/13 11:16:25;;;;;;;7.10;6.27;;;30.90;93.20;;;;;;6266451;22;20550;-89
2021/08/13 11:19:24;;;;;;;8.00;6.80;;;31.10;92.20;;;;;;6265296;22;20401;-89
2021/08/13 11:21:55;;;;;;;7.20;6.13;;;30.90;92.40;;;;;;6266633;22;20416;-89
2021/08/13 11:24:51;;;;;;;7.83;7.07;;;31.00;92.10;;;;;;6267512;22;20705;-89
2021/08/13 11:27:18;;;;;;;7.53;6.83;;;31.10;91.80;;;;;;6267044;22;20463;-89
2021/08/13 11:29:49;;;;;;;7.50;6.40;;;30.40;92.50;;;;;;6266476;22;20394;-89
2021/08/13 11:32:17;;;;;;;7.90;7.20;;;30.30;92.80;;;;;;6267568;22;20441;-89
2021/08/13 11:35:01;;;;;;;8.57;7.03;;;30.70;92.50;;;;;;6264811;22;20397;-90
2021/08/13 11:37:54;;;;;;;8.67;7.87;;;31.00;91.60;;;;;;6265774;22;20408;-89
2021/08/13 11:40:19;;;;;;;7.23;6.63;;;30.60;91.90;;;;;;6265743;22;20727;-89
2021/08/13 11:45:51;;;;;;;7.50;6.50;;;30.70;91.90;;;;;;6253810;22;20664;-90
2021/08/13 11:48:42;;;;;;;7.03;6.30;;;30.40;92.50;;;;;;6268090;22;20431;-94
2021/08/13 11:51:11;;;;;;;8.00;6.40;;;30.80;92.20;;;;;;6267980;22;20547;-89
2021/08/13 11:53:43;;;;;;;8.03;7.30;;;30.40;91.90;;;;;;6270876;22;20447;-96
2021/08/13 11:56:27;;;;;;;9.10;8.40;;;30.50;93.80;;;;;;6265831;22;20405;-91
2021/08/13 11:59:11;;;;;;;10.20;9.00;;;30.70;93.10;;;;;;6265869;22;20400;-91
2021/08/13 12:01:54;;;;;;;10.57;8.87;;;30.90;92.80;;;;;;6266677;22;20393;-90
2021/08/13 12:04:22;;;;;;;10.30;8.90;;;30.90;93.30;;;;;;6266045;22;20423;-90
2021/08/13 12:07:08;;;;;;;8.90;8.20;;;31.40;93.60;;;;;;6266856;22;20932;-90
2021/08/13 12:09:39;;;;;;;10.77;7.67;;;31.20;92.70;;;;;;6264346;22;20431;-89
2021/08/13 12:12:06;;;;;;;9.87;8.47;;;31.10;90.90;;;;;;6266553;22;20931;-90
2021/08/13 12:14:35;;;;;;;9.70;8.73;;;31.70;92.30;;;;;;6264718;22;20416;-89
2021/08/13 12:17:02;;;;;;;10.50;8.23;;;31.40;91.00;;;;;;6264595;22;20455;-90
2021/08/13 12:19:31;;;;;;;9.37;8.40;;;31.60;91.90;;;;;;6265351;22;20511;-90
2021/08/13 12:22:08;;;;;;;9.20;8.40;;;31.40;92.60;;;;;;6265734;22;20712;-91
2021/08/13 12:24:52;;;;;;;9.40;8.50;;;31.40;92.10;;;;;;6266675;22;20409;-90
2021/08/13 12:27:25;;;;;;;9.20;8.37;;;30.50;92.10;;;;;;6266773;22;20385;-89
2021/08/13 12:29:53;;;;;;;9.10;8.30;;;30.20;93.70;;;;;;6238012;22;20401;-90
2021/08/13 12:32:19;;;;;;;9.10;8.30;;;30.70;93.90;;;;;;6266696;22;20610;-90
2021/08/13 12:35:02;;;;;;;10.30;8.73;;;31.20;92.80;;;;;;6266849;22;20399;-90
2021/08/13 12:37:28;;;;;;;11.40;8.80;;;31.80;91.90;;;;;;6243054;22;20166;-90
2021/08/13 12:39:59;;;;;;;9.97;8.97;;;32.30;91.70;;;;;;6239391;22;20462;-90
2021/08/13 12:42:26;;;;;;;8.97;8.10;;;31.90;90.40;;;;;;6260183;22;20166;-90
2021/08/13 12:44:52;;;;;;;8.80;7.97;;;32.10;91.20;;;;;;6265859;22;20423;-90
2021/08/13 12:47:26;;;;;;;9.43;8.20;;;32.30;90.80;;;;;;6264984;22;20720;-90
2021/08/13 12:50:09;;;;;;;9.50;8.53;;;32.70;91.20;;;;;;6263996;22;20415;-91